Time;durP1;ratioP1;P1;durP2;ratioP2;P2;SDS_P1;SDS_P2;PMS_P1;PMS_P2;Temp;Humidity;BMP_temperature;BMP_pressure;BME280_temperature;BME280_humidity;BME280_pressure;Samples;Min_cycle;Max_cycle;Signal;HPM_P1;HPM_P2
2022/09/12 00:01:26;;;;;;;17.25;6.42;;;;;;;16.58;55.69;99327.81;1717082;83;21213;-77
2022/09/12 00:04:32;;;;;;;14.03;6.70;;;;;;;16.75;55.23;99327.98;1719807;82;21745;-77
2022/09/12 00:07:38;;;;;;;16.95;6.80;;;;;;;16.64;55.68;99316.89;1718523;83;21172;-76
2022/09/12 00:10:50;;;;;;;29.63;6.90;;;;;;;16.68;55.77;99329.97;1718354;82;21204;-77
2022/09/12 00:13:55;;;;;;;10.82;5.87;;;;;;;16.65;56.02;99330.98;1719459;82;21770;-77
2022/09/12 00:17:05;;;;;;;17.05;6.78;;;;;;;16.61;56.23;99327.34;1718796;83;21211;-76
2022/09/12 00:20:13;;;;;;;16.30;6.65;;;;;;;16.60;56.25;99324.26;1686496;83;21216;-76
2022/09/12 00:23:19;;;;;;;13.78;6.62;;;;;;;16.66;56.12;99323.87;1719393;83;21196;-76
2022/09/12 00:26:25;;;;;;;18.62;6.83;;;;;;;16.35;56.68;99316.20;1719304;83;21213;-77
2022/09/12 00:29:31;;;;;;;16.35;6.40;;;;;;;16.35;57.08;99321.73;1719779;82;21648;-76
2022/09/12 00:32:38;;;;;;;21.02;6.20;;;;;;;16.35;57.09;99315.37;1719848;83;21137;-76
2022/09/12 00:35:55;;;;;;;18.85;5.92;;;;;;;16.29;57.08;99309.44;1719375;82;21243;-76
2022/09/12 00:39:01;;;;;;;21.17;6.37;;;;;;;16.30;56.93;99309.19;1719355;82;21215;-76
2022/09/12 00:42:06;;;;;;;17.52;6.62;;;;;;;16.31;56.86;99297.61;1719725;83;21188;-76
2022/09/12 00:45:12;;;;;;;20.77;6.83;;;;;;;16.30;56.90;99298.69;1719685;82;21200;-76
2022/09/12 00:48:23;;;;;;;19.60;7.00;;;;;;;16.31;57.00;99298.98;1719226;83;21746;-76
2022/09/12 00:51:29;;;;;;;16.73;6.15;;;;;;;16.35;57.04;99294.67;1719526;83;21256;-76
2022/09/12 00:54:38;;;;;;;17.17;7.17;;;;;;;16.24;57.45;99288.07;1719265;82;21794;-76
2022/09/12 00:57:47;;;;;;;20.50;6.62;;;;;;;16.16;57.67;99283.44;1719656;83;21188;-76
2022/09/12 01:00:55;;;;;;;17.70;5.87;;;;;;;16.20;57.55;99277.75;1719743;83;21144;-76
2022/09/12 01:04:00;;;;;;;20.08;6.03;;;;;;;16.19;57.68;99278.83;1721999;82;21211;-76
2022/09/12 01:07:06;;;;;;;21.85;6.70;;;;;;;16.33;57.50;99277.53;1699131;83;21216;-76
2022/09/12 01:10:13;;;;;;;23.35;5.65;;;;;;;16.39;56.94;99273.80;1721539;82;21804;-77
2022/09/12 01:13:17;;;;;;;14.65;5.92;;;;;;;16.42;56.62;99267.81;1721603;83;21187;-76
2022/09/12 01:16:23;;;;;;;17.62;5.03;;;;;;;16.38;56.48;99258.33;1722551;83;21220;-75
2022/09/12 01:20:07;;;;;;;18.23;5.87;;;;;;;16.37;56.81;99258.00;1722010;82;21239;-76
2022/09/12 01:23:24;;;;;;;13.00;5.65;;;;;;;16.41;56.87;99254.23;1722556;83;21796;-76
2022/09/12 01:27:23;;;;;;;13.60;5.17;;;;;;;16.47;56.96;99257.44;1722511;83;21156;-76
2022/09/12 01:30:41;;;;;;;21.35;5.55;;;;;;;16.53;57.25;99257.84;1720954;82;21220;-77
2022/09/12 01:34:25;;;;;;;22.90;5.37;;;;;;;16.70;57.39;99262.95;1722432;82;21240;-77
2022/09/12 01:37:36;;;;;;;28.75;5.75;;;;;;;16.82;57.63;99258.27;1690570;82;21160;-77
2022/09/12 01:40:58;;;;;;;21.25;5.72;;;;;;;16.96;57.78;99256.63;1721273;82;21765;-77
2022/09/12 01:44:22;;;;;;;13.05;6.17;;;;;;;17.05;58.14;99262.07;1721656;82;21414;-77
2022/09/12 01:47:39;;;;;;;17.30;5.65;;;;;;;17.03;58.26;99266.47;1722525;83;21207;-77
2022/09/12 01:50:50;;;;;;;13.95;5.03;;;;;;;17.26;57.92;99260.55;1721141;82;21816;-75
2022/09/12 01:53:59;;;;;;;18.80;5.42;;;;;;;17.29;57.90;99265.60;1721924;82;21228;-76
2022/09/12 01:57:07;;;;;;;13.65;4.90;;;;;;;17.38;57.04;99264.97;1722113;83;21173;-76
2022/09/12 02:00:09;;;;;;;18.77;5.22;;;;;;;17.43;56.85;99269.75;1722728;82;21777;-76
2022/09/12 02:03:26;;;;;;;18.37;4.97;;;;;;;17.40;57.07;99264.70;1721785;82;21732;-76
2022/09/12 02:06:57;;;;;;;12.75;4.55;;;;;;;17.50;57.20;99262.69;1719365;83;21184;-76
2022/09/12 02:10:07;;;;;;;15.70;5.08;;;;;;;17.52;57.36;99261.37;1719418;82;21237;-76
2022/09/12 02:13:22;;;;;;;13.40;4.60;;;;;;;17.58;56.93;99264.52;1719275;83;21205;-76
2022/09/12 02:16:24;;;;;;;11.53;4.87;;;;;;;17.60;56.56;99267.05;1719830;83;21169;-76
2022/09/12 02:19:25;;;;;;;14.47;5.30;;;;;;;17.59;56.49;99262.59;1719511;82;21211;-76
2022/09/12 02:22:21;;;;;;;14.25;5.53;;;;;;;17.60;56.56;99260.14;1719868;83;21714;-76
2022/09/12 02:25:09;;;;;;;15.10;5.22;;;;;;;17.64;56.35;99262.68;1719846;82;21192;-76
2022/09/12 02:28:28;;;;;;;20.95;5.33;;;;;;;17.69;56.22;99261.94;1701902;83;21211;-76
2022/09/12 02:31:37;;;;;;;22.45;5.67;;;;;;;17.80;55.92;99265.23;1719362;83;21165;-76
2022/09/12 02:35:00;;;;;;;20.25;5.12;;;;;;;17.80;56.20;99262.47;1719319;82;21208;-76
2022/09/12 02:38:10;;;;;;;14.28;4.78;;;;;;;17.91;56.08;99258.79;1720027;83;21161;-76
2022/09/12 02:41:16;;;;;;;10.28;5.22;;;;;;;18.05;56.04;99251.01;1720015;83;21199;-76
2022/09/12 02:44:20;;;;;;;15.85;5.17;;;;;;;18.17;56.00;99248.17;1719212;82;21184;-76
2022/09/12 02:47:36;;;;;;;14.07;5.78;;;;;;;18.29;55.96;99250.29;1719840;83;21774;-76
2022/09/12 02:50:42;;;;;;;10.90;5.45;;;;;;;18.37;55.91;99249.33;1719875;82;21656;-76
2022/09/12 02:53:47;;;;;;;16.02;5.03;;;;;;;18.32;56.29;99246.48;1719382;82;21746;-76
2022/09/12 02:56:53;;;;;;;18.90;5.35;;;;;;;18.46;56.22;99252.52;1719775;83;21192;-76
2022/09/12 03:00:01;;;;;;;15.60;5.25;;;;;;;18.57;55.96;99241.87;1718874;82;21729;-76
2022/09/12 03:03:50;;;;;;;14.00;4.92;;;;;;;18.64;55.76;99246.70;1719884;83;21197;-76
2022/09/12 03:07:13;;;;;;;15.85;5.08;;;;;;;18.54;56.07;99250.70;1720000;83;21200;-76
2022/09/12 03:10:40;;;;;;;14.30;4.85;;;;;;;18.49;56.07;99254.78;1718255;82;21271;-76
2022/09/12 03:14:08;;;;;;;13.48;4.55;;;;;;;18.54;56.09;99258.17;1712668;82;21741;-76
2022/09/12 03:17:35;;;;;;;26.17;4.80;;;;;;;18.55;56.17;99257.91;1719965;83;21686;-76
2022/09/12 03:21:10;;;;;;;18.10;4.75;;;;;;;18.58;55.93;99260.19;1718995;82;21200;-76
2022/09/12 03:24:20;;;;;;;13.05;5.00;;;;;;;18.47;55.91;99257.50;1719327;82;21236;-76
2022/09/12 03:27:21;;;;;;;23.05;5.17;;;;;;;18.44;55.83;99257.99;1719743;83;21200;-76
2022/09/12 03:30:09;;;;;;;18.80;4.30;;;;;;;18.46;55.85;99258.05;1714928;82;21220;-76
2022/09/12 03:33:01;;;;;;;34.08;5.25;;;;;;;18.43;56.19;99261.31;1719768;83;21212;-76
2022/09/12 03:36:00;;;;;;;15.45;5.08;;;;;;;18.49;55.93;99258.94;1719750;83;21168;-76
2022/09/12 03:38:52;;;;;;;10.43;5.25;;;;;;;18.42;56.29;99256.04;1718318;82;21722;-76
2022/09/12 03:41:58;;;;;;;10.03;5.10;;;;;;;18.52;56.76;99250.66;1719153;83;21181;-76
2022/09/12 03:45:02;;;;;;;16.20;5.17;;;;;;;18.53;57.29;99247.62;1719233;82;21172;-77
2022/09/12 03:48:08;;;;;;;22.27;6.05;;;;;;;18.53;57.40;99253.16;1719697;83;21173;-77
2022/09/12 03:51:16;;;;;;;20.82;6.42;;;;;;;18.55;57.69;99252.38;1718027;83;21237;-77
2022/09/12 03:54:22;;;;;;;17.85;6.58;;;;;;;18.60;58.10;99248.30;1719288;82;21748;-77
2022/09/12 03:57:29;;;;;;;20.88;7.35;;;;;;;18.67;58.93;99247.27;1719662;83;21164;-77
2022/09/12 04:00:36;;;;;;;13.10;7.10;;;;;;;18.70;59.68;99248.19;1718563;82;21208;-76
2022/09/12 04:03:43;;;;;;;19.98;7.05;;;;;;;18.62;60.27;99249.41;1717830;82;21326;-76
2022/09/12 04:06:49;;;;;;;29.90;8.75;;;;;;;18.59;60.92;99243.02;1719201;83;21177;-77
2022/09/12 04:09:56;;;;;;;17.17;8.03;;;;;;;18.44;61.93;99249.69;1718959;82;21188;-77
2022/09/12 04:13:02;;;;;;;25.72;9.23;;;;;;;18.43;62.64;99248.86;1719576;83;21204;-76
2022/09/12 04:16:06;;;;;;;26.97;8.65;;;;;;;18.42;63.13;99249.95;1718942;83;21769;-76
2022/09/12 04:19:11;;;;;;;20.75;9.38;;;;;;;18.24;63.83;99248.28;1719824;82;21243;-76
2022/09/12 04:22:17;;;;;;;24.80;9.18;;;;;;;18.32;63.83;99248.41;1719749;83;21140;-76
2022/09/12 04:25:22;;;;;;;25.05;8.90;;;;;;;18.48;63.57;99246.71;1719937;82;21730;-76
2022/09/12 04:28:29;;;;;;;27.22;9.20;;;;;;;18.51;63.54;99240.13;1719828;82;21706;-76
2022/09/12 04:31:34;;;;;;;30.62;9.83;;;;;;;18.68;63.01;99242.02;1718890;83;21188;-75
2022/09/12 04:34:40;;;;;;;18.92;8.95;;;;;;;18.70;63.21;99240.71;1719785;82;21180;-76
2022/09/12 04:37:46;;;;;;;17.45;8.23;;;;;;;18.58;64.01;99251.02;1719903;83;21753;-76
2022/09/12 04:40:51;;;;;;;17.50;8.00;;;;;;;18.86;63.53;99256.98;1719853;83;21749;-76
2022/09/12 04:44:04;;;;;;;19.10;7.03;;;;;;;18.70;64.24;99253.72;1719291;82;21786;-76
2022/09/12 04:47:09;;;;;;;20.40;8.10;;;;;;;18.55;65.05;99249.61;1719474;83;21200;-76
2022/09/12 04:50:16;;;;;;;16.12;8.60;;;;;;;18.68;65.05;99248.94;1719756;82;21192;-76
2022/09/12 04:53:21;;;;;;;14.13;6.85;;;;;;;18.75;65.29;99261.55;1719575;83;21165;-76
2022/09/12 04:56:27;;;;;;;24.10;8.35;;;;;;;18.97;64.82;99258.82;1719866;83;21156;-76
2022/09/12 04:59:32;;;;;;;25.15;8.40;;;;;;;19.08;64.61;99266.16;1719497;82;22207;-76
2022/09/12 05:02:41;;;;;;;22.22;6.83;;;;;;;19.00;66.22;99266.59;1718233;83;21793;-76
2022/09/12 05:05:46;;;;;;;25.35;8.63;;;;;;;19.07;65.81;99267.27;1719235;82;21282;-76
2022/09/12 05:08:55;;;;;;;18.57;8.18;;;;;;;19.27;65.23;99265.84;1714757;83;21184;-76
2022/09/12 05:12:01;;;;;;;26.75;9.38;;;;;;;19.31;64.91;99268.39;1714172;81;21188;-77
2022/09/12 05:15:07;;;;;;;24.70;9.35;;;;;;;19.34;64.66;99266.50;1716030;82;21200;-77
2022/09/12 05:18:12;;;;;;;22.77;10.00;;;;;;;19.45;64.11;99262.73;1712228;82;21475;-77
2022/09/12 05:21:19;;;;;;;23.02;10.08;;;;;;;19.54;63.57;99261.18;1705605;82;21697;-77
2022/09/12 05:24:24;;;;;;;28.45;10.60;;;;;;;19.85;62.55;99263.73;1715900;81;21680;-77
2022/09/12 05:27:30;;;;;;;24.07;9.65;;;;;;;19.97;62.46;99275.25;1765205;79;21245;-76
2022/09/12 05:30:37;;;;;;;27.75;12.20;;;;;;;19.96;62.98;99275.80;1759420;79;21672;-77
2022/09/12 05:33:45;;;;;;;39.38;16.50;;;;;;;19.94;63.40;99266.05;1735840;81;22330;-77
2022/09/12 05:36:51;;;;;;;33.10;16.00;;;;;;;20.03;63.21;99264.47;1711984;82;21211;-76
2022/09/12 05:39:58;;;;;;;33.13;16.10;;;;;;;20.24;62.61;99266.34;1705697;82;21844;-76
2022/09/12 05:43:04;;;;;;;34.73;15.75;;;;;;;20.24;62.67;99273.83;1709761;82;21173;-77
2022/09/12 05:46:16;;;;;;;29.27;13.62;;;;;;;20.11;62.86;99273.16;1698676;83;21741;-85
2022/09/12 05:49:22;;;;;;;29.77;13.60;;;;;;;20.16;62.30;99267.64;1711340;82;21212;-84
2022/09/12 05:52:22;;;;;;;31.00;12.88;;;;;;;20.17;61.99;99266.54;1710942;82;21195;-85
2022/09/12 05:55:15;;;;;;;30.85;14.50;;;;;;;20.33;61.45;99263.91;1713131;82;21236;-85
2022/09/12 05:58:21;;;;;;;35.33;14.15;;;;;;;20.43;60.64;99273.16;1706429;82;21176;-84
2022/09/12 06:01:28;;;;;;;35.28;12.18;;;;;;;20.22;61.40;99274.63;1696934;82;21161;-85
2022/09/12 06:04:34;;;;;;;31.73;14.20;;;;;;;20.46;60.92;99291.20;1711863;82;21177;-85
2022/09/12 06:07:40;;;;;;;34.23;15.25;;;;;;;20.48;60.73;99305.72;1705298;82;21251;-85
2022/09/12 06:10:46;;;;;;;39.63;17.40;;;;;;;20.49;60.63;99301.83;1708791;82;21515;-84
2022/09/12 06:13:52;;;;;;;44.45;18.52;;;;;;;20.35;61.10;99300.57;1713361;82;21204;-85
2022/09/12 06:16:59;;;;;;;61.18;20.62;;;;;;;20.17;61.74;99285.97;1704338;82;21613;-86
2022/09/12 06:20:03;;;;;;;45.05;20.37;;;;;;;20.14;61.78;99283.74;1710981;82;21527;-84
2022/09/12 06:23:09;;;;;;;56.15;21.77;;;;;;;19.98;62.37;99272.20;1707145;82;21504;-83
2022/09/12 06:26:16;;;;;;;47.48;19.55;;;;;;;20.05;62.33;99270.05;1709447;82;21758;-86
2022/09/12 06:29:23;;;;;;;49.18;21.73;;;;;;;20.06;62.59;99260.63;1716828;82;21610;-78
2022/09/12 06:32:29;;;;;;;56.53;22.35;;;;;;;20.08;62.65;99251.47;1708673;82;21534;-78
2022/09/12 06:35:36;;;;;;;45.83;23.30;;;;;;;20.04;63.16;99247.57;1711796;82;21193;-78
2022/09/12 06:38:41;;;;;;;56.08;22.27;;;;;;;20.01;65.09;99252.80;1713695;82;21174;-77
2022/09/12 06:41:47;;;;;;;40.78;21.25;;;;;;;20.24;64.60;99251.06;1710996;82;21200;-77
2022/09/12 06:44:54;;;;;;;56.30;22.02;;;;;;;20.39;63.97;99257.28;1714598;82;21316;-78
2022/09/12 06:48:01;;;;;;;53.15;22.75;;;;;;;20.56;63.50;99257.14;1706106;82;21316;-78
2022/09/12 06:51:10;;;;;;;47.85;21.15;;;;;;;20.62;63.12;99265.27;1709199;82;21141;-86
2022/09/12 06:54:20;;;;;;;43.17;19.85;;;;;;;20.75;62.67;99271.44;1715396;82;21185;-85
2022/09/12 06:57:26;;;;;;;47.53;22.17;;;;;;;20.87;62.23;99280.42;1679429;83;21572;-86
2022/09/12 07:00:31;;;;;;;58.17;22.50;;;;;;;20.78;63.09;99284.25;1707196;82;21240;-78
2022/09/12 07:03:37;;;;;;;47.85;21.48;;;;;;;20.64;63.74;99276.94;1711599;82;21209;-85
2022/09/12 07:06:47;;;;;;;54.13;23.70;;;;;;;20.70;64.06;99281.97;1711935;82;21181;-85
2022/09/12 07:09:52;;;;;;;59.70;25.12;;;;;;;20.53;64.26;99283.53;1761736;80;21214;-85
2022/09/12 07:12:59;;;;;;;53.42;23.10;;;;;;;20.47;64.73;99280.97;1763408;80;21145;-84
2022/09/12 07:16:09;;;;;;;39.73;19.27;;;;;;;20.40;65.05;99272.28;1750332;80;21184;-79
2022/09/12 07:19:16;;;;;;;45.50;19.57;;;;;;;20.34;65.50;99275.30;1770502;79;21177;-77
2022/09/12 07:22:23;;;;;;;40.12;19.85;;;;;;;20.25;65.85;99282.44;1759489;79;22090;-77
2022/09/12 07:25:29;;;;;;;39.70;17.62;;;;;;;20.21;66.19;99275.19;1763985;80;21846;-83
2022/09/12 07:28:37;;;;;;;38.30;17.48;;;;;;;20.18;66.41;99288.20;1765472;80;21207;-83
2022/09/12 07:31:42;;;;;;;46.35;17.48;;;;;;;20.08;66.84;99289.49;1755251;80;21921;-84
2022/09/12 07:34:49;;;;;;;43.98;19.95;;;;;;;19.96;67.55;99290.23;1758112;79;21174;-78
2022/09/12 07:37:58;;;;;;;42.27;20.92;;;;;;;19.84;68.18;99294.53;1761294;79;21277;-78
2022/09/12 07:41:04;;;;;;;49.58;22.27;;;;;;;19.66;69.08;99288.23;1757937;79;21131;-77
2022/09/12 07:44:09;;;;;;;49.53;23.87;;;;;;;19.60;69.72;99287.89;1755023;79;21155;-77
2022/09/12 07:47:16;;;;;;;49.88;25.17;;;;;;;19.64;69.78;99275.19;1758999;79;21158;-78
2022/09/12 07:50:21;;;;;;;44.65;21.23;;;;;;;19.49;70.59;99268.05;1758991;80;21172;-77
2022/09/12 07:53:27;;;;;;;49.03;22.85;;;;;;;19.46;71.29;99279.66;1755133;81;21788;-77
2022/09/12 07:56:33;;;;;;;46.37;22.87;;;;;;;19.53;71.32;99274.77;1758892;80;21582;-77
2022/09/12 07:59:41;;;;;;;54.48;25.97;;;;;;;19.46;72.36;99269.95;1758452;79;21194;-76
2022/09/12 08:02:48;;;;;;;65.87;30.52;;;;;;;19.30;73.23;99266.72;1755252;79;21692;-77
2022/09/12 08:05:54;;;;;;;59.55;26.90;;;;;;;19.35;73.75;99261.23;1761620;79;21216;-77
2022/09/12 08:09:00;;;;;;;54.15;26.25;;;;;;;19.38;73.80;99267.63;1765196;79;21189;-76
2022/09/12 08:12:06;;;;;;;44.08;20.25;;;;;;;19.51;73.58;99274.17;1755129;81;21276;-77
2022/09/12 08:15:12;;;;;;;41.33;19.52;;;;;;;19.52;73.38;99268.91;1763148;79;21508;-77
2022/09/12 08:18:18;;;;;;;38.78;19.30;;;;;;;19.60;73.16;99265.70;1757537;79;21193;-83
2022/09/12 08:21:26;;;;;;;49.27;22.32;;;;;;;19.83;72.59;99265.95;1763664;80;21225;-77
2022/09/12 08:24:32;;;;;;;53.42;21.37;;;;;;;19.62;73.13;99264.91;1760600;79;21210;-77
2022/09/12 08:27:38;;;;;;;44.35;20.90;;;;;;;19.71;72.98;99251.94;1759355;80;21763;-77
2022/09/12 08:30:43;;;;;;;36.63;17.80;;;;;;;19.86;72.22;99242.41;1753347;79;21208;-76
2022/09/12 08:33:51;;;;;;;36.83;17.80;;;;;;;19.94;71.16;99236.35;1756402;79;21176;-77
2022/09/12 08:36:50;;;;;;;42.93;18.15;;;;;;;20.19;69.43;99229.38;1756889;79;21512;-83
2022/09/12 08:39:55;;;;;;;51.77;20.02;;;;;;;20.17;69.26;99228.23;1762668;80;21194;-83
2022/09/12 08:43:31;;;;;;;42.15;19.42;;;;;;;20.26;68.25;99226.64;1753028;79;21170;-84
2022/09/12 08:47:04;;;;;;;44.40;19.20;;;;;;;20.33;67.91;99236.14;1760459;79;21170;-82
2022/09/12 08:50:17;;;;;;;43.08;19.02;;;;;;;20.55;67.29;99236.03;1760110;81;22073;-83
2022/09/12 08:53:27;;;;;;;50.12;23.32;;;;;;;20.52;67.02;99234.64;1759666;79;21496;-83
2022/09/12 08:56:34;;;;;;;51.30;22.35;;;;;;;20.54;67.11;99226.03;1741047;79;21250;-82
2022/09/12 08:59:47;;;;;;;39.65;20.77;;;;;;;20.75;67.18;99226.98;1762385;79;21187;-83
2022/09/12 09:03:12;;;;;;;39.38;19.48;;;;;;;20.97;67.33;99227.66;1749171;79;21153;-83
2022/09/12 09:06:51;;;;;;;35.60;15.20;;;;;;;21.27;67.81;99217.80;1776176;79;21658;-82
2022/09/12 09:10:30;;;;;;;28.05;14.25;;;;;;;21.40;64.96;99217.29;1763817;80;21249;-84
2022/09/12 09:17:27;;;;;;;34.48;12.07;;;;;;;22.22;61.82;99207.70;1711121;83;21167;-84
2022/09/12 09:20:54;;;;;;;24.07;11.55;;;;;;;22.26;61.42;99215.22;1737595;82;21181;-82
2022/09/12 09:24:04;;;;;;;21.07;9.10;;;;;;;22.31;61.33;99210.20;1739599;80;21182;-84
2022/09/12 09:27:29;;;;;;;21.70;10.08;;;;;;;22.48;60.60;99206.53;1765513;79;21179;-83
2022/09/12 09:30:36;;;;;;;17.95;7.37;;;;;;;22.46;59.48;99208.78;1736781;81;21726;-83
2022/09/12 09:33:42;;;;;;;16.95;6.45;;;;;;;22.64;58.01;99199.00;1706177;82;21165;-84
2022/09/12 09:37:10;;;;;;;19.05;7.00;;;;;;;22.68;57.82;99202.89;1730517;82;21775;-84
2022/09/12 09:40:26;;;;;;;20.08;7.72;;;;;;;22.74;58.50;99202.31;1726987;82;21193;-84
2022/09/12 09:43:32;;;;;;;23.32;8.73;;;;;;;23.03;58.20;99196.38;1763791;80;21679;-84
2022/09/12 09:46:37;;;;;;;13.83;7.67;;;;;;;23.08;57.35;99188.55;1760207;81;21205;-83
2022/09/12 09:49:42;;;;;;;20.35;8.63;;;;;;;23.25;57.52;99196.58;1760976;80;21207;-77
2022/09/12 09:52:47;;;;;;;16.00;9.23;;;;;;;23.38;56.80;99188.95;1765462;80;21177;-84
2022/09/12 09:55:54;;;;;;;14.53;8.08;;;;;;;23.59;56.72;99177.95;1768153;80;21723;-85
2022/09/12 09:59:00;;;;;;;11.28;6.10;;;;;;;23.86;56.16;99178.91;1706822;82;21188;-85
2022/09/12 10:02:23;;;;;;;19.05;8.70;;;;;;;24.08;55.28;99180.39;1770819;79;21349;-84
2022/09/12 10:05:29;;;;;;;18.70;9.40;;;;;;;24.10;55.49;99174.80;1730533;82;21520;-84
2022/09/12 10:08:40;;;;;;;14.18;8.60;;;;;;;24.19;54.69;99174.44;1738802;81;21220;-84
2022/09/12 10:11:45;;;;;;;;;;;;;;;24.03;55.01;99173.45;1745686;81;21192;-84
2022/09/12 10:14:51;;;;;;;17.02;8.15;;;;;;;24.26;54.88;99167.67;1722447;81;20225;-84
2022/09/12 10:17:57;;;;;;;15.93;8.15;;;;;;;24.04;54.96;99171.75;1659141;84;21565;-84
2022/09/12 10:21:02;;;;;;;13.43;8.28;;;;;;;24.05;55.06;99176.24;1688497;83;21230;-84
2022/09/12 10:24:20;;;;;;;16.95;8.78;;;;;;;24.21;55.00;99181.95;1685060;83;21265;-84
2022/09/12 10:27:39;;;;;;;12.98;7.60;;;;;;;24.25;55.15;99185.56;1696911;83;22121;-84
2022/09/12 10:30:45;;;;;;;19.02;8.13;;;;;;;24.31;55.82;99188.00;1701831;83;21256;-84
2022/09/12 10:33:51;;;;;;;15.40;7.92;;;;;;;24.57;55.88;99197.58;1679603;83;22091;-85
2022/09/12 10:36:56;;;;;;;19.55;7.72;;;;;;;24.68;54.80;99199.13;1691634;83;21603;-85
2022/09/12 10:40:02;;;;;;;17.48;7.53;;;;;;;24.83;54.57;99198.13;1644764;83;21192;-77
2022/09/12 10:43:08;;;;;;;13.68;7.15;;;;;;;25.00;53.54;99215.27;1698653;83;22081;-77
2022/09/12 10:46:29;;;;;;;12.75;7.58;;;;;;;25.16;52.92;99210.34;1728927;82;21177;-77
2022/09/12 10:49:39;;;;;;;13.83;6.22;;;;;;;25.44;52.48;99218.38;1730267;81;22272;-84
2022/09/12 10:52:46;;;;;;;11.35;6.92;;;;;;;25.68;50.84;99225.31;1735344;81;21186;-86
2022/09/12 10:56:12;;;;;;;14.47;6.80;;;;;;;25.70;51.90;99216.06;1729049;81;21195;-84
2022/09/12 10:59:49;;;;;;;11.90;6.90;;;;;;;25.71;50.87;99220.52;1682181;83;21216;-84
2022/09/12 11:03:25;;;;;;;21.27;6.58;;;;;;;25.88;50.27;99208.83;1701448;83;21730;-85
2022/09/12 11:06:39;;;;;;;9.63;5.55;;;;;;;25.89;49.54;99209.08;1661217;83;21495;-83
2022/09/12 11:10:22;;;;;;;13.25;7.53;;;;;;;26.14;49.01;99214.26;1729739;82;21176;-77
2022/09/12 11:14:02;;;;;;;13.32;7.03;;;;;;;26.20;48.71;99211.62;1723239;79;21234;-77
2022/09/12 11:17:22;;;;;;;14.05;7.22;;;;;;;26.13;48.55;99201.97;1761722;79;21345;-85
2022/09/12 11:20:48;;;;;;;17.27;6.83;;;;;;;25.98;48.79;99204.45;1769674;79;21389;-77
2022/09/12 11:24:27;;;;;;;14.55;6.92;;;;;;;26.05;48.84;99195.08;1828478;76;22222;-77
2022/09/12 11:27:59;;;;;;;14.78;7.17;;;;;;;26.10;48.79;99197.79;1769738;79;21136;-84
2022/09/12 11:31:39;;;;;;;9.40;6.20;;;;;;;26.18;48.55;99186.47;1733319;80;21289;-84
2022/09/12 11:35:26;;;;;;;12.25;6.60;;;;;;;26.10;49.24;99178.75;1739215;80;21168;-83
2022/09/12 11:38:55;;;;;;;11.60;7.08;;;;;;;26.43;48.37;99173.99;1740277;80;21223;-76
2022/09/12 11:42:06;;;;;;;9.85;6.25;;;;;;;26.64;47.24;99175.28;1717567;81;21226;-77
2022/09/12 11:45:24;;;;;;;12.47;6.47;;;;;;;26.78;46.83;99170.27;1724612;80;21804;-77
2022/09/12 11:48:48;;;;;;;13.80;6.75;;;;;;;26.67;46.83;99169.03;1730901;80;21525;-77
2022/09/12 11:52:11;;;;;;;14.05;6.25;;;;;;;26.36;47.07;99162.33;1715534;81;21165;-76
2022/09/12 11:55:26;;;;;;;9.88;5.92;;;;;;;26.37;46.84;99161.19;1728563;81;21176;-85
2022/09/12 11:58:35;;;;;;;10.58;6.40;;;;;;;26.27;46.92;99168.38;1724566;81;21155;-84
2022/09/12 12:01:46;;;;;;;21.97;7.05;;;;;;;26.17;47.27;99169.39;1733461;81;21176;-85
2022/09/12 12:05:13;;;;;;;10.95;6.28;;;;;;;26.16;47.90;99178.37;1732581;81;21137;-85
2022/09/12 12:08:19;;;;;;;16.75;7.53;;;;;;;26.11;47.99;99165.86;1739111;81;21456;-83
2022/09/12 12:11:40;;;;;;;10.70;6.62;;;;;;;26.20;48.52;99165.38;1723709;81;21148;-83
2022/09/12 12:14:54;;;;;;;14.10;7.33;;;;;;;26.24;49.11;99160.83;1708473;82;21727;-83
2022/09/12 12:18:12;;;;;;;12.13;7.10;;;;;;;26.17;48.86;99150.61;1730656;81;21298;-77
2022/09/12 12:21:47;;;;;;;15.40;7.70;;;;;;;26.15;48.98;99152.87;1730996;81;21156;-76
2022/09/12 12:25:16;;;;;;;16.15;6.80;;;;;;;26.23;48.66;99143.77;1725597;82;21229;-84
2022/09/12 12:28:49;;;;;;;20.70;7.40;;;;;;;26.26;48.14;99139.53;1727053;82;21193;-84
2022/09/12 12:32:13;;;;;;;16.57;7.08;;;;;;;26.17;48.14;99138.00;1718796;82;21181;-84
2022/09/12 12:35:48;;;;;;;21.30;7.65;;;;;;;26.12;48.44;99128.86;1714287;83;21181;-84
2022/09/12 12:38:55;;;;;;;13.35;7.37;;;;;;;26.15;48.29;99122.62;1703075;83;21228;-84
2022/09/12 12:42:00;;;;;;;15.15;7.17;;;;;;;26.40;47.84;99124.14;1705682;83;21817;-84
2022/09/12 12:45:10;;;;;;;17.02;7.50;;;;;;;26.24;47.79;99132.81;1716079;83;21185;-84
2022/09/12 12:48:17;;;;;;;15.45;7.40;;;;;;;26.34;47.83;99126.18;1709103;81;21157;-84
2022/09/12 12:51:36;;;;;;;12.50;7.30;;;;;;;26.31;48.13;99130.19;1704275;83;21199;-84
2022/09/12 12:54:55;;;;;;;12.63;7.55;;;;;;;26.30;47.90;99126.56;1725727;81;22376;-77
2022/09/12 12:58:04;;;;;;;13.20;7.37;;;;;;;26.25;47.78;99124.69;1712257;82;21201;-77
2022/09/12 13:01:26;;;;;;;15.32;7.92;;;;;;;26.38;47.45;99116.02;1720837;83;21212;-77
2022/09/12 13:04:35;;;;;;;14.47;6.67;;;;;;;26.04;48.53;99121.14;1721358;81;21573;-78
2022/09/12 13:07:44;;;;;;;11.80;6.95;;;;;;;25.99;48.41;99117.86;1722414;81;21200;-78
2022/09/12 13:11:02;;;;;;;12.95;8.00;;;;;;;26.01;47.96;99111.38;1708045;83;22063;-76
2022/09/12 13:14:13;;;;;;;17.92;8.13;;;;;;;26.45;47.09;99104.44;1692994;83;21536;-84
2022/09/12 13:17:22;;;;;;;17.42;7.87;;;;;;;26.43;47.20;99104.73;1724367;81;21773;-85
2022/09/12 13:20:39;;;;;;;14.85;8.33;;;;;;;26.65;46.83;99109.64;1712430;81;21191;-77
2022/09/12 13:23:34;;;;;;;14.43;8.00;;;;;;;26.78;46.54;99105.75;1718577;81;21190;-76
2022/09/12 13:26:48;;;;;;;19.87;9.05;;;;;;;26.69;46.67;99106.47;1711653;83;21181;-77
2022/09/12 13:29:53;;;;;;;16.45;7.80;;;;;;;26.67;46.73;99110.72;1717643;81;21185;-77
2022/09/12 13:33:00;;;;;;;16.73;8.43;;;;;;;26.74;46.62;99109.17;1709744;81;21785;-84
2022/09/12 13:36:11;;;;;;;20.15;8.68;;;;;;;26.88;46.25;99113.95;1711263;83;21175;-77
2022/09/12 13:39:35;;;;;;;22.02;8.78;;;;;;;26.62;46.46;99114.45;1743909;81;21193;-77
2022/09/12 13:42:58;;;;;;;12.60;8.63;;;;;;;26.47;46.88;99114.19;1710527;82;21162;-78
2022/09/12 13:46:03;;;;;;;16.32;8.40;;;;;;;26.48;47.04;99119.22;1692211;84;21249;-77
2022/09/12 13:49:16;;;;;;;19.90;8.38;;;;;;;26.50;46.76;99116.95;1737666;81;21832;-76
2022/09/12 13:52:34;;;;;;;13.48;8.10;;;;;;;26.63;46.53;99112.48;1702279;82;21216;-77
2022/09/12 13:55:45;;;;;;;12.55;7.37;;;;;;;26.66;46.06;99116.07;1705888;82;21509;-77
2022/09/12 13:59:02;;;;;;;16.85;8.88;;;;;;;26.15;46.80;99118.41;1723470;82;21210;-78
2022/09/12 14:02:08;;;;;;;23.40;9.20;;;;;;;26.29;46.68;99119.84;1727380;81;21742;-76
2022/09/12 14:05:28;;;;;;;17.48;9.98;;;;;;;25.97;47.35;99108.38;1726754;82;21756;-77
2022/09/12 14:08:37;;;;;;;18.77;9.98;;;;;;;25.96;47.38;99107.27;1708742;82;21245;-77
2022/09/12 14:11:43;;;;;;;21.10;10.50;;;;;;;25.87;47.70;99106.30;1709987;82;21440;-78
2022/09/12 14:14:49;;;;;;;25.85;11.22;;;;;;;25.82;47.85;99118.42;1695950;82;21573;-77
2022/09/12 14:18:03;;;;;;;22.20;11.35;;;;;;;25.78;48.11;99117.94;1717515;82;21205;-75
2022/09/12 14:21:16;;;;;;;18.65;10.63;;;;;;;25.65;48.41;99115.33;1721280;82;21169;-84
2022/09/12 14:24:24;;;;;;;23.95;11.48;;;;;;;25.62;48.39;99114.53;1723984;81;21240;-85
2022/09/12 14:27:36;;;;;;;19.43;11.23;;;;;;;25.62;48.66;99108.36;1731249;81;21214;-84
2022/09/12 14:30:43;;;;;;;;;;;;;;;25.57;48.98;99100.05;1710095;82;21209;-85
2022/09/12 14:34:04;;;;;;;23.90;11.95;;;;;;;25.61;48.91;99095.50;1716761;82;20189;-83
2022/09/12 14:37:12;;;;;;;20.68;11.40;;;;;;;25.64;48.97;99096.31;1717658;82;21188;-84
2022/09/12 14:40:30;;;;;;;21.12;11.12;;;;;;;25.64;49.27;99103.30;1704258;82;21896;-86
2022/09/12 14:43:40;;;;;;;22.82;11.68;;;;;;;25.57;49.49;99097.25;1705602;84;21166;-84
2022/09/12 14:46:46;;;;;;;21.95;11.53;;;;;;;25.62;49.62;99095.77;1702836;84;21185;-85
2022/09/12 14:49:51;;;;;;;22.30;11.18;;;;;;;25.43;50.27;99094.38;1703004;84;21211;-85
2022/09/12 14:53:17;;;;;;;22.37;10.32;;;;;;;25.42;50.42;99097.50;1713493;81;21169;-84